createdAt,value
2022-09-03T00:01:16.946Z,544.60
2022-09-03T00:03:51.804Z,537.83
2022-09-03T00:06:38.354Z,522.85
2022-09-03T00:09:23.973Z,542.88
2022-09-03T00:12:06.336Z,522.88
2022-09-03T00:14:50.598Z,525.20
2022-09-03T00:17:27.394Z,532.15
2022-09-03T00:20:22.242Z,534.30
2022-09-03T00:22:53.238Z,539.00
2022-09-03T00:25:45.565Z,534.20
2022-09-03T00:28:29.954Z,538.15
2022-09-03T00:31:18.962Z,529.78
2022-09-03T00:33:49.617Z,537.95
2022-09-03T00:36:23.618Z,543.50
2022-09-03T00:38:52.284Z,531.87
2022-09-03T00:41:48.416Z,537.30
2022-09-03T00:44:36.175Z,547.77
2022-09-03T00:47:25.574Z,565.45
2022-09-03T00:50:24.064Z,574.22
2022-09-03T00:53:06.563Z,564.20
2022-09-03T00:55:57.062Z,562.72
2022-09-03T00:58:39.820Z,565.00
2022-09-03T01:01:30.502Z,559.67
2022-09-03T01:04:22.363Z,557.60
2022-09-03T01:06:57.477Z,560.70
2022-09-03T01:09:52.087Z,555.38
2022-09-03T01:12:26.081Z,570.95
2022-09-03T01:15:36.014Z,568.60
2022-09-03T01:18:27.324Z,564.57
2022-09-03T01:21:23.342Z,566.35
2022-09-03T01:24:07.420Z,568.08
2022-09-03T01:26:48.670Z,571.33
2022-09-03T01:29:29.723Z,571.03
2022-09-03T01:32:10.123Z,568.85
2022-09-03T01:34:53.983Z,568.65
2022-09-03T01:37:32.576Z,569.63
2022-09-03T01:40:09.083Z,569.72
2022-09-03T01:42:53.933Z,564.90
2022-09-03T01:46:00.760Z,556.22
2022-09-03T01:48:44.460Z,559.10
2022-09-03T01:51:25.671Z,559.67
2022-09-03T01:53:53.120Z,551.35
2022-09-03T01:56:58.089Z,546.38
2022-09-03T01:59:38.154Z,553.57
2022-09-03T02:02:12.850Z,543.20
2022-09-03T02:04:40.448Z,539.65
2022-09-03T02:07:08.051Z,530.30
2022-09-03T02:09:35.541Z,530.15
2022-09-03T02:12:11.523Z,535.95
2022-09-03T02:14:39.155Z,529.65
2022-09-03T02:17:08.558Z,530.75
2022-09-03T02:19:37.737Z,534.77
2022-09-03T02:22:06.113Z,533.80
2022-09-03T02:24:33.928Z,527.50
2022-09-03T02:27:02.431Z,525.65
2022-09-03T02:29:30.887Z,544.70
2022-09-03T02:31:59.087Z,530.90
2022-09-03T02:34:26.708Z,545.00
2022-09-03T02:36:54.613Z,553.97
2022-09-03T02:39:22.338Z,546.53
2022-09-03T02:41:57.786Z,546.03
2022-09-03T02:44:31.795Z,555.90
2022-09-03T02:47:05.383Z,542.00
2022-09-03T02:49:33.358Z,541.35
2022-09-03T02:52:06.492Z,534.60
2022-09-03T02:54:36.458Z,529.50
2022-09-03T02:57:13.182Z,530.00
2022-09-03T02:59:44.163Z,538.60
2022-09-03T03:02:14.139Z,544.83
2022-09-03T03:04:41.682Z,543.63
2022-09-03T03:07:09.658Z,545.97
2022-09-03T03:09:37.162Z,542.88
2022-09-03T03:12:05.494Z,546.08
2022-09-03T03:14:33.089Z,547.10
2022-09-03T03:17:00.717Z,547.63
2022-09-03T03:19:28.571Z,544.25
2022-09-03T03:21:57.119Z,542.22
2022-09-03T03:24:24.638Z,542.10
2022-09-03T03:26:57.804Z,536.28
2022-09-03T03:29:25.661Z,535.58
2022-09-03T03:31:53.298Z,539.75
2022-09-03T03:34:21.741Z,537.20
2022-09-03T03:36:49.277Z,532.50
2022-09-03T03:39:16.852Z,537.97
2022-09-03T03:41:44.530Z,536.55
2022-09-03T03:44:12.256Z,516.97
2022-09-03T03:46:41.781Z,521.40
2022-09-03T03:49:11.795Z,520.55
2022-09-03T03:51:40.199Z,522.80
2022-09-03T03:54:07.851Z,524.13
2022-09-03T03:56:35.666Z,519.33
2022-09-03T03:59:04.296Z,523.65
2022-09-03T04:01:32.670Z,515.38
2022-09-03T04:04:00.611Z,507.73
2022-09-03T04:06:29.012Z,500.37
2022-09-03T04:08:57.034Z,505.48
2022-09-03T04:11:25.421Z,492.20
2022-09-03T04:13:53.608Z,499.20
2022-09-03T04:16:26.843Z,499.33
2022-09-03T04:18:56.957Z,493.77
2022-09-03T04:21:28.419Z,497.60
2022-09-03T04:23:57.585Z,494.33
2022-09-03T04:26:31.677Z,501.80
2022-09-03T04:29:01.397Z,496.70
2022-09-03T04:31:29.547Z,499.52
2022-09-03T04:33:57.811Z,502.73
2022-09-03T04:36:27.989Z,496.67
2022-09-03T04:38:58.419Z,506.38
2022-09-03T04:41:28.364Z,502.10
2022-09-03T04:43:58.252Z,507.25
2022-09-03T04:46:33.434Z,502.85
2022-09-03T04:49:02.462Z,495.08
2022-09-03T04:51:31.631Z,494.05
2022-09-03T04:54:01.748Z,493.42
2022-09-03T04:56:35.105Z,506.03
2022-09-03T04:59:09.161Z,515.80
2022-09-03T05:01:39.280Z,512.42
2022-09-03T05:04:08.127Z,519.43
2022-09-03T05:06:37.195Z,520.13
2022-09-03T05:09:05.724Z,531.08
2022-09-03T05:11:33.261Z,540.15
2022-09-03T05:14:01.210Z,541.95
2022-09-03T05:16:30.962Z,545.60
2022-09-03T05:19:00.128Z,549.03
2022-09-03T05:21:28.755Z,551.20
2022-09-03T05:23:57.148Z,562.17
2022-09-03T05:26:27.692Z,566.90
2022-09-03T05:28:57.250Z,568.05
2022-09-03T05:31:28.335Z,571.30
2022-09-03T05:33:59.740Z,573.17
2022-09-03T05:36:32.732Z,573.08
2022-09-03T05:39:00.408Z,572.63
2022-09-03T05:41:29.087Z,577.33
2022-09-03T05:43:58.749Z,581.15
2022-09-03T05:46:32.631Z,581.25
2022-09-03T05:49:02.135Z,572.78
2022-09-03T05:51:30.857Z,564.03
2022-09-03T05:53:59.181Z,573.88
2022-09-03T05:56:29.034Z,572.90
2022-09-03T05:59:01.719Z,570.60
2022-09-03T06:01:32.751Z,573.88
2022-09-03T06:04:01.920Z,579.33
2022-09-03T06:06:32.996Z,583.23
2022-09-03T06:09:03.437Z,574.10
2022-09-03T06:11:32.948Z,589.33
2022-09-03T06:14:01.807Z,587.90
2022-09-03T06:16:31.859Z,594.65
2022-09-03T06:19:00.839Z,579.65
2022-09-03T06:21:29.126Z,578.42
2022-09-03T06:24:00.091Z,590.72
2022-09-03T06:26:29.516Z,607.33
2022-09-03T06:28:57.982Z,597.25
2022-09-03T06:31:26.444Z,584.27
2022-09-03T06:33:54.727Z,590.05
2022-09-03T06:36:24.018Z,594.30
2022-09-03T06:38:53.691Z,582.70
2022-09-03T06:41:26.771Z,582.73
2022-09-03T06:43:59.322Z,568.10
2022-09-03T06:46:26.833Z,571.20
2022-09-03T06:48:54.512Z,579.67
2022-09-03T06:51:27.589Z,596.20
2022-09-03T06:54:04.006Z,588.97
2022-09-03T06:56:38.855Z,597.60
2022-09-03T06:59:11.993Z,592.30
2022-09-03T07:01:44.118Z,585.53
2022-09-03T07:04:16.213Z,565.97
2022-09-03T07:06:44.474Z,561.80
2022-09-03T07:09:12.739Z,576.20
2022-09-03T07:11:47.401Z,613.08
2022-09-03T07:14:17.637Z,639.53
2022-09-03T07:16:46.369Z,603.25
2022-09-03T07:19:14.382Z,607.15
2022-09-03T07:21:48.116Z,555.33
2022-09-03T07:24:18.333Z,584.25
2022-09-03T07:26:49.483Z,625.80
2022-09-03T07:29:20.823Z,641.13
2022-09-03T07:31:53.709Z,630.58
2022-09-03T07:34:25.525Z,635.17
2022-09-03T07:36:54.938Z,619.10
2022-09-03T07:39:22.629Z,597.85
2022-09-03T07:41:50.755Z,577.07
2022-09-03T07:44:19.903Z,571.22
2022-09-03T07:46:50.109Z,602.25
2022-09-03T07:49:17.705Z,583.78
2022-09-03T07:51:46.711Z,582.60
2022-09-03T07:54:14.287Z,486.70
2022-09-03T07:56:41.898Z,541.03
2022-09-03T07:59:09.646Z,529.70
2022-09-03T08:01:38.417Z,558.42
2022-09-03T08:04:09.865Z,599.80
2022-09-03T08:06:39.224Z,654.50
2022-09-03T08:09:11.387Z,534.45
2022-09-03T08:11:43.372Z,488.92
2022-09-03T08:14:13.471Z,466.70
2022-09-03T08:16:43.497Z,401.27
2022-09-03T08:19:12.096Z,528.70
2022-09-03T08:21:42.296Z,546.78
2022-09-03T08:24:12.079Z,460.45
2022-09-03T08:26:46.244Z,479.02
2022-09-03T08:29:14.091Z,544.67
2022-09-03T08:31:41.756Z,501.25
2022-09-03T08:34:11.871Z,557.03
2022-09-03T08:36:43.726Z,438.65
2022-09-03T08:39:12.357Z,607.80
2022-09-03T08:41:52.575Z,524.50
2022-09-03T08:44:29.418Z,620.07
2022-09-03T08:47:21.377Z,523.35
2022-09-03T08:49:49.278Z,513.42
2022-09-03T08:52:28.837Z,544.40
2022-09-03T08:55:06.181Z,524.97
2022-09-03T08:57:48.167Z,578.75
2022-09-03T09:00:18.209Z,621.53
2022-09-03T09:03:07.597Z,638.42
2022-09-03T09:05:53.380Z,578.20
2022-09-03T09:08:36.116Z,473.90
2022-09-03T09:11:16.335Z,345.50
2022-09-03T09:14:12.376Z,538.00
2022-09-03T09:16:55.442Z,573.30
2022-09-03T09:19:42.447Z,618.22
2022-09-03T09:22:15.171Z,542.60
2022-09-03T09:24:47.251Z,516.75
2022-09-03T09:27:19.946Z,434.08
2022-09-03T09:29:50.724Z,601.97
2022-09-03T09:32:21.631Z,709.05
2022-09-03T09:34:52.492Z,614.28
2022-09-03T09:37:22.134Z,503.98
2022-09-03T09:40:01.296Z,515.17
2022-09-03T09:42:31.142Z,372.93
2022-09-03T09:45:09.543Z,431.52
2022-09-03T09:47:40.086Z,345.98
2022-09-03T09:50:26.151Z,426.77
2022-09-03T09:53:18.014Z,361.73
2022-09-03T09:55:54.080Z,375.67
2022-09-03T09:58:24.071Z,498.60
2022-09-03T10:01:13.245Z,168.35
2022-09-03T10:03:50.045Z,178.98
2022-09-03T10:06:36.196Z,297.20
2022-09-03T10:09:13.096Z,356.35
2022-09-03T10:11:47.895Z,189.88
2022-09-03T10:14:33.402Z,11.93
2022-09-03T10:17:14.764Z,63.08
2022-09-03T10:20:16.247Z,46.15
2022-09-03T10:22:57.356Z,190.65
2022-09-03T10:25:39.312Z,44.67
2022-09-03T10:28:10.026Z,38.20
2022-09-03T10:30:55.312Z,220.03
2022-09-03T10:33:37.024Z,39.90
2022-09-03T10:36:20.102Z,1.48
2022-09-03T10:39:19.831Z,21.90
2022-09-03T10:42:11.772Z,31.92
2022-09-03T10:44:48.148Z,370.23
2022-09-03T10:47:35.368Z,269.45
2022-09-03T10:50:23.227Z,138.02
2022-09-03T10:53:25.700Z,100.67
2022-09-03T10:56:12.994Z,115.63
2022-09-03T10:58:55.098Z,152.20
2022-09-03T11:01:38.086Z,13.27
2022-09-03T11:04:17.836Z,12.75
2022-09-03T11:06:51.500Z,1.30
2022-09-03T11:09:26.775Z,1.77
2022-09-03T11:12:00.164Z,1.30
2022-09-03T11:14:38.328Z,1.23
2022-09-03T11:17:13.165Z,1.40
2022-09-03T11:19:53.027Z,1.63
2022-09-03T11:22:23.463Z,11.63
2022-09-03T11:24:56.697Z,1.20
2022-09-03T11:27:30.086Z,1.20
2022-09-03T11:30:22.378Z,1.50
2022-09-03T11:32:55.678Z,1.20
2022-09-03T11:35:38.733Z,1.40
2022-09-03T11:38:29.179Z,4.75
2022-09-03T11:40:59.961Z,3.67
2022-09-03T11:43:32.632Z,1.60
2022-09-03T11:46:14.773Z,1.57
2022-09-03T11:48:45.113Z,1.80
2022-09-03T11:51:30.448Z,5.22
2022-09-03T11:54:13.499Z,1.20
2022-09-03T11:56:42.986Z,1.20
2022-09-03T11:59:16.425Z,1.25
2022-09-03T12:02:13.216Z,7.80
2022-09-03T12:05:19.592Z,1.30
2022-09-03T12:08:06.762Z,2.38
2022-09-03T12:11:23.884Z,1.35
2022-09-03T12:14:00.627Z,0.90
2022-09-03T12:17:25.229Z,1.23
2022-09-03T12:19:55.538Z,1.30
2022-09-03T12:22:28.890Z,2.10
2022-09-03T12:24:56.502Z,14.20
2022-09-03T12:27:27.196Z,10.13
2022-09-03T12:30:05.451Z,2.00
2022-09-03T12:32:39.444Z,1.40
2022-09-03T12:38:09.091Z,1.52
2022-09-03T12:43:39.456Z,2.95
2022-09-03T12:46:14.640Z,1.33
2022-09-03T12:51:49.896Z,1.45
2022-09-03T12:54:21.208Z,1.58
2022-09-03T12:56:58.486Z,2.00
2022-09-03T12:59:30.929Z,6.18
2022-09-03T13:02:05.599Z,1.50
2022-09-03T13:04:36.373Z,1.42
2022-09-03T13:07:11.674Z,1.27
2022-09-03T13:09:41.232Z,1.23
2022-09-03T13:12:33.588Z,9.88
2022-09-03T13:15:08.368Z,1.38
2022-09-03T13:17:47.932Z,1.30
2022-09-03T13:20:42.290Z,1.50
2022-09-03T13:23:41.406Z,1.17
2022-09-03T13:26:16.279Z,1.60
2022-09-03T13:29:01.871Z,1.52
2022-09-03T13:31:36.663Z,1.70
2022-09-03T13:34:15.882Z,1.40
2022-09-03T13:36:56.647Z,1.70
2022-09-03T13:39:52.620Z,1.37
2022-09-03T13:42:32.981Z,1.35
2022-09-03T13:45:30.368Z,1.60
2022-09-03T13:48:20.162Z,1.30
2022-09-03T13:50:59.626Z,1.33
2022-09-03T13:53:36.846Z,2.20
2022-09-03T13:56:16.084Z,1.33
2022-09-03T13:58:49.371Z,1.85
2022-09-03T14:01:41.676Z,1.40
2022-09-03T14:04:25.418Z,1.30
2022-09-03T14:07:09.622Z,1.27
2022-09-03T14:10:10.592Z,1.42
2022-09-03T14:12:49.360Z,1.48
2022-09-03T14:15:29.682Z,1.40
2022-09-03T14:18:24.156Z,1.30
2022-09-03T14:20:57.648Z,1.40
2022-09-03T14:23:55.197Z,1.60
2022-09-03T14:26:38.500Z,1.90
2022-09-03T14:29:13.179Z,2.10
2022-09-03T14:32:14.731Z,7.32
2022-09-03T14:35:06.044Z,1.95
2022-09-03T14:37:39.751Z,30.10
2022-09-03T14:40:19.137Z,1.85
2022-09-03T14:43:02.229Z,2.67
2022-09-03T14:45:45.510Z,2.35
2022-09-03T14:48:48.675Z,2.63
2022-09-03T14:51:22.043Z,2.08
2022-09-03T14:54:14.637Z,3.45
2022-09-03T14:56:46.447Z,3.75
2022-09-03T14:59:38.479Z,2.35
2022-09-03T15:02:12.068Z,2.03
2022-09-03T15:04:51.422Z,4.07
2022-09-03T15:07:33.137Z,3.85
2022-09-03T15:10:33.083Z,4.07
2022-09-03T15:13:19.156Z,8.77
2022-09-03T15:15:59.608Z,53.38
2022-09-03T15:18:51.124Z,5.80
2022-09-03T15:21:52.449Z,11.52
2022-09-03T15:24:41.945Z,21.33
2022-09-03T15:27:17.513Z,28.35
2022-09-03T15:30:15.654Z,31.95
2022-09-03T15:33:22.294Z,39.85
2022-09-03T15:36:16.375Z,103.32
2022-09-03T15:38:55.186Z,4.35
2022-09-03T15:41:40.487Z,3.78
2022-09-03T15:44:18.950Z,3.03
2022-09-03T15:46:50.016Z,1.70
2022-09-03T15:49:20.492Z,24.67
2022-09-03T15:52:21.043Z,11.32
2022-09-03T15:55:11.726Z,35.30
2022-09-03T15:58:14.414Z,7.00
2022-09-03T16:00:48.349Z,2.63
2022-09-03T16:03:23.889Z,17.77
2022-09-03T16:06:05.904Z,2.50
2022-09-03T16:08:55.448Z,33.63
2022-09-03T16:12:04.942Z,13.40
2022-09-03T16:14:47.602Z,10.95
2022-09-03T16:17:43.444Z,6.00
2022-09-03T16:20:21.672Z,2.50
2022-09-03T16:22:56.460Z,2.85
2022-09-03T16:25:31.935Z,9.80
2022-09-03T16:28:19.473Z,23.75
2022-09-03T16:30:52.501Z,5.80
2022-09-03T16:33:27.905Z,2.05
2022-09-03T16:36:10.596Z,1.95
2022-09-03T16:38:43.904Z,2.33
2022-09-03T16:41:33.249Z,2.03
2022-09-03T16:44:16.122Z,3.80
2022-09-03T16:46:54.485Z,2.20
2022-09-03T16:49:34.838Z,3.80
2022-09-03T16:52:37.877Z,25.88
2022-09-03T16:55:31.633Z,16.55
2022-09-03T16:58:22.216Z,9.57
2022-09-03T17:01:25.037Z,4.85
2022-09-03T17:04:17.651Z,16.40
2022-09-03T17:07:04.990Z,10.70
2022-09-03T17:10:02.091Z,27.73
2022-09-03T17:12:32.341Z,17.65
2022-09-03T17:15:05.614Z,51.97
2022-09-03T17:17:51.283Z,17.92
2022-09-03T17:20:40.893Z,10.90
2022-09-03T17:23:31.340Z,22.25
2022-09-03T17:26:31.261Z,42.40
2022-09-03T17:29:26.218Z,18.93
2022-09-03T17:32:28.112Z,36.72
2022-09-03T17:35:07.886Z,8.43
2022-09-03T17:38:02.138Z,21.98
2022-09-03T17:41:01.064Z,25.02
2022-09-03T17:43:33.858Z,39.78
2022-09-03T17:46:44.128Z,43.72
2022-09-03T17:49:22.292Z,78.10
2022-09-03T17:51:59.363Z,73.75
2022-09-03T17:54:52.221Z,136.73
2022-09-03T17:57:30.762Z,126.70
2022-09-03T18:00:09.361Z,160.95
2022-09-03T18:02:50.564Z,151.45
2022-09-03T18:05:42.611Z,174.50
2022-09-03T18:08:11.900Z,166.55
2022-09-03T18:11:01.067Z,122.50
2022-09-03T18:13:51.545Z,129.33
2022-09-03T18:16:31.856Z,132.73
2022-09-03T18:19:05.109Z,96.88
2022-09-03T18:21:56.357Z,128.57
2022-09-03T18:24:50.935Z,106.40
2022-09-03T18:27:42.971Z,170.90
2022-09-03T18:30:31.443Z,135.13
2022-09-03T18:33:17.766Z,116.85
2022-09-03T18:36:05.710Z,113.72
2022-09-03T18:38:55.120Z,116.05
2022-09-03T18:42:09.311Z,117.20
2022-09-03T18:45:23.981Z,172.00
2022-09-03T18:48:38.229Z,169.38
2022-09-03T18:51:42.919Z,158.37
2022-09-03T18:54:50.607Z,171.45
2022-09-03T18:58:02.474Z,187.85
2022-09-03T19:00:52.831Z,240.60
2022-09-03T19:04:18.524Z,271.53
2022-09-03T19:07:32.760Z,158.07
2022-09-03T19:10:25.456Z,180.27
2022-09-03T19:13:24.949Z,191.35
2022-09-03T19:16:21.443Z,225.05
2022-09-03T19:19:19.635Z,128.37
2022-09-03T19:22:13.829Z,149.07
2022-09-03T19:24:59.776Z,177.63
2022-09-03T19:28:03.791Z,158.50
2022-09-03T19:31:33.472Z,167.85
2022-09-03T19:34:31.834Z,127.10
2022-09-03T19:37:29.254Z,133.00
2022-09-03T19:40:32.321Z,177.10
2022-09-03T19:43:59.967Z,217.85
2022-09-03T19:46:59.832Z,163.07
2022-09-03T19:50:33.241Z,248.32
2022-09-03T19:53:23.264Z,224.68
2022-09-03T19:56:14.783Z,219.65
2022-09-03T19:59:08.711Z,221.07
2022-09-03T20:01:56.763Z,171.32
2022-09-03T20:04:53.813Z,246.43
2022-09-03T20:07:40.167Z,222.90
2022-09-03T20:10:24.584Z,202.95
2022-09-03T20:13:13.434Z,235.90
2022-09-03T20:15:59.393Z,254.80
2022-09-03T20:18:43.023Z,244.23
2022-09-03T20:21:16.598Z,252.98
2022-09-03T20:24:06.500Z,194.35
2022-09-03T20:26:59.972Z,171.57
2022-09-03T20:29:30.374Z,207.43
2022-09-03T20:32:12.320Z,181.93
2022-09-03T20:34:59.786Z,232.05
2022-09-03T20:37:59.129Z,261.92
2022-09-03T20:40:38.483Z,193.95
2022-09-03T20:43:39.000Z,251.57
2022-09-03T20:46:33.525Z,279.25
2022-09-03T20:49:05.072Z,277.92
2022-09-03T20:51:41.165Z,244.20
2022-09-03T20:54:09.588Z,438.60
2022-09-03T20:57:08.256Z,415.55
2022-09-03T20:59:55.585Z,308.48
2022-09-03T21:03:03.748Z,367.95
2022-09-03T21:05:43.655Z,302.83
2022-09-03T21:08:26.729Z,284.83
2022-09-03T21:10:58.925Z,272.33
2022-09-03T21:13:56.609Z,327.67
2022-09-03T21:16:51.450Z,337.80
2022-09-03T21:19:41.664Z,475.50
2022-09-03T21:22:10.157Z,417.10
2022-09-03T21:24:51.301Z,395.73
2022-09-03T21:27:36.387Z,459.67
2022-09-03T21:30:07.421Z,285.00
2022-09-03T21:33:02.250Z,269.75
2022-09-03T21:35:36.259Z,240.73
2022-09-03T21:38:13.360Z,294.17
2022-09-03T21:41:08.173Z,306.50
2022-09-03T21:43:50.577Z,250.90
2022-09-03T21:46:56.901Z,455.35
2022-09-03T21:49:35.822Z,370.75
2022-09-03T21:52:13.548Z,344.40
2022-09-03T21:54:41.356Z,322.48
2022-09-03T21:57:22.494Z,387.83
2022-09-03T22:00:20.512Z,369.35
2022-09-03T22:02:49.928Z,320.88
2022-09-03T22:05:19.079Z,341.07
2022-09-03T22:08:26.488Z,474.38
2022-09-03T22:11:25.239Z,418.33
2022-09-03T22:14:06.499Z,323.33
2022-09-03T22:16:53.213Z,261.60
2022-09-03T22:19:21.904Z,338.65
2022-09-03T22:22:02.434Z,331.02
2022-09-03T22:24:37.547Z,409.58
2022-09-03T22:27:25.437Z,286.53
2022-09-03T22:30:11.456Z,266.77
2022-09-03T22:33:17.513Z,465.65
2022-09-03T22:36:37.556Z,309.13
2022-09-03T22:39:24.403Z,366.63
2022-09-03T22:42:24.991Z,273.50
2022-09-03T22:45:12.470Z,243.63
2022-09-03T22:47:49.635Z,237.63
2022-09-03T22:50:26.820Z,225.95
2022-09-03T22:53:05.229Z,230.90
2022-09-03T22:55:35.118Z,273.13
2022-09-03T22:58:15.740Z,197.15
2022-09-03T23:00:55.968Z,214.57
2022-09-03T23:03:37.062Z,203.30
2022-09-03T23:06:10.551Z,217.32
2022-09-03T23:09:00.719Z,162.52
2022-09-03T23:11:38.851Z,287.83
2022-09-03T23:14:13.187Z,212.75
2022-09-03T23:17:20.319Z,315.00
2022-09-03T23:19:53.312Z,339.40
2022-09-03T23:22:21.253Z,363.23
2022-09-03T23:25:11.855Z,319.90
2022-09-03T23:27:53.671Z,332.20
2022-09-03T23:30:22.780Z,351.88
2022-09-03T23:32:56.276Z,268.67
2022-09-03T23:35:34.608Z,219.63
2022-09-03T23:38:24.329Z,227.80
2022-09-03T23:40:57.326Z,244.63
2022-09-03T23:44:07.178Z,217.90
2022-09-03T23:46:45.484Z,171.32
2022-09-03T23:49:50.499Z,208.88
2022-09-03T23:52:30.364Z,205.27
2022-09-03T23:55:23.512Z,238.10
2022-09-03T23:58:25.129Z,310.30
